Aviation Digital Data Service (ADDS)

Output produced by METARs form (1308 UTC 21 February 2018)
found at http://www.aviationweather.gov/adds/metars/
 
TAF MZBZ 201500Z 2018/2118 10010KT 9999 SCT022 SCT045 
     PROB40 
     TEMPO 2114/2118 4000 SHRA BKN014
       
TAF MZBZ 201500Z 2018/2118 10010KT 9999 SCT022 SCT045 
     PROB40 
     TEMPO 2114/2118 4000 SHRA BKN014